sensor_id;sensor_type;location;lat;lon;timestamp;P1;durP1;ratioP1;P2;durP2;ratioP2
65896;SDS011;52677;50.898;10.854;2023-04-25T00:01:42;6.68;;;5.28;;
65896;SDS011;52677;50.898;10.854;2023-04-25T00:03:42;9.70;;;5.90;;
65896;SDS011;52677;50.898;10.854;2023-04-25T00:05:42;8.70;;;5.45;;
65896;SDS011;52677;50.898;10.854;2023-04-25T00:07:43;7.22;;;5.13;;
65896;SDS011;52677;50.898;10.854;2023-04-25T00:09:43;7.22;;;5.18;;
65896;SDS011;52677;50.898;10.854;2023-04-25T00:11:44;5.75;;;4.75;;
65896;SDS011;52677;50.898;10.854;2023-04-25T00:13:45;9.27;;;4.97;;
65896;SDS011;52677;50.898;10.854;2023-04-25T00:15:46;8.95;;;5.47;;
65896;SDS011;52677;50.898;10.854;2023-04-25T00:17:48;8.50;;;5.97;;
65896;SDS011;52677;50.898;10.854;2023-04-25T00:19:48;8.45;;;5.43;;
65896;SDS011;52677;50.898;10.854;2023-04-25T00:21:49;8.80;;;5.38;;
65896;SDS011;52677;50.898;10.854;2023-04-25T00:23:50;9.70;;;5.43;;
65896;SDS011;52677;50.898;10.854;2023-04-25T00:25:50;10.90;;;6.22;;
65896;SDS011;52677;50.898;10.854;2023-04-25T00:27:51;7.07;;;5.15;;
65896;SDS011;52677;50.898;10.854;2023-04-25T00:29:51;7.72;;;5.75;;
65896;SDS011;52677;50.898;10.854;2023-04-25T00:31:51;7.28;;;5.10;;
65896;SDS011;52677;50.898;10.854;2023-04-25T00:33:52;8.13;;;5.13;;
65896;SDS011;52677;50.898;10.854;2023-04-25T00:35:53;9.23;;;5.50;;
65896;SDS011;52677;50.898;10.854;2023-04-25T00:37:54;7.38;;;5.30;;
65896;SDS011;52677;50.898;10.854;2023-04-25T00:39:54;7.07;;;4.78;;
65896;SDS011;52677;50.898;10.854;2023-04-25T00:41:55;10.85;;;5.85;;
65896;SDS011;52677;50.898;10.854;2023-04-25T00:43:57;8.27;;;5.35;;
65896;SDS011;52677;50.898;10.854;2023-04-25T00:48:01;7.57;;;5.00;;
65896;SDS011;52677;50.898;10.854;2023-04-25T00:50:02;7.45;;;5.47;;
65896;SDS011;52677;50.898;10.854;2023-04-25T00:52:02;7.57;;;5.03;;
65896;SDS011;52677;50.898;10.854;2023-04-25T00:54:03;6.72;;;5.10;;
65896;SDS011;52677;50.898;10.854;2023-04-25T00:56:04;9.57;;;5.53;;
65896;SDS011;52677;50.898;10.854;2023-04-25T00:58:05;8.33;;;4.87;;
65896;SDS011;52677;50.898;10.854;2023-04-25T01:00:06;9.68;;;5.28;;
65896;SDS011;52677;50.898;10.854;2023-04-25T01:02:09;6.68;;;5.28;;
65896;SDS011;52677;50.898;10.854;2023-04-25T01:04:09;6.30;;;4.88;;
65896;SDS011;52677;50.898;10.854;2023-04-25T01:06:10;7.78;;;5.22;;
65896;SDS011;52677;50.898;10.854;2023-04-25T01:08:11;7.50;;;5.07;;
65896;SDS011;52677;50.898;10.854;2023-04-25T01:10:11;7.82;;;4.97;;
65896;SDS011;52677;50.898;10.854;2023-04-25T01:12:11;7.45;;;4.93;;
65896;SDS011;52677;50.898;10.854;2023-04-25T01:14:12;7.68;;;5.10;;
65896;SDS011;52677;50.898;10.854;2023-04-25T01:16:13;9.35;;;5.20;;
65896;SDS011;52677;50.898;10.854;2023-04-25T01:18:13;10.48;;;6.28;;
65896;SDS011;52677;50.898;10.854;2023-04-25T01:20:14;9.55;;;4.88;;
65896;SDS011;52677;50.898;10.854;2023-04-25T01:22:15;8.23;;;5.90;;
65896;SDS011;52677;50.898;10.854;2023-04-25T01:24:15;8.52;;;5.00;;
65896;SDS011;52677;50.898;10.854;2023-04-25T01:26:16;9.73;;;5.57;;
65896;SDS011;52677;50.898;10.854;2023-04-25T01:28:16;9.27;;;5.53;;
65896;SDS011;52677;50.898;10.854;2023-04-25T01:30:17;9.07;;;5.72;;
65896;SDS011;52677;50.898;10.854;2023-04-25T01:32:19;8.75;;;5.90;;
65896;SDS011;52677;50.898;10.854;2023-04-25T01:34:20;7.72;;;5.35;;
65896;SDS011;52677;50.898;10.854;2023-04-25T01:36:20;7.05;;;4.88;;
65896;SDS011;52677;50.898;10.854;2023-04-25T01:38:21;9.38;;;5.22;;
65896;SDS011;52677;50.898;10.854;2023-04-25T01:40:22;8.35;;;6.07;;
65896;SDS011;52677;50.898;10.854;2023-04-25T01:42:24;7.03;;;5.57;;
65896;SDS011;52677;50.898;10.854;2023-04-25T01:44:24;7.97;;;5.53;;
65896;SDS011;52677;50.898;10.854;2023-04-25T01:46:26;8.00;;;5.30;;
65896;SDS011;52677;50.898;10.854;2023-04-25T01:48:27;8.07;;;4.93;;
65896;SDS011;52677;50.898;10.854;2023-04-25T01:50:27;5.82;;;4.85;;
65896;SDS011;52677;50.898;10.854;2023-04-25T01:52:29;10.02;;;4.93;;
65896;SDS011;52677;50.898;10.854;2023-04-25T01:54:29;7.72;;;5.15;;
65896;SDS011;52677;50.898;10.854;2023-04-25T01:56:30;8.43;;;5.25;;
65896;SDS011;52677;50.898;10.854;2023-04-25T01:58:31;9.90;;;5.20;;
65896;SDS011;52677;50.898;10.854;2023-04-25T02:00:32;10.07;;;6.25;;
65896;SDS011;52677;50.898;10.854;2023-04-25T02:02:32;8.23;;;4.90;;
65896;SDS011;52677;50.898;10.854;2023-04-25T02:04:32;8.95;;;5.28;;
65896;SDS011;52677;50.898;10.854;2023-04-25T02:06:33;7.07;;;5.45;;
65896;SDS011;52677;50.898;10.854;2023-04-25T02:08:33;9.13;;;5.47;;
65896;SDS011;52677;50.898;10.854;2023-04-25T02:10:33;11.00;;;5.35;;
65896;SDS011;52677;50.898;10.854;2023-04-25T02:12:35;7.75;;;5.28;;
65896;SDS011;52677;50.898;10.854;2023-04-25T02:14:35;8.70;;;5.47;;
65896;SDS011;52677;50.898;10.854;2023-04-25T02:16:36;8.57;;;5.88;;
65896;SDS011;52677;50.898;10.854;2023-04-25T02:18:36;8.75;;;4.95;;
65896;SDS011;52677;50.898;10.854;2023-04-25T02:20:37;11.25;;;5.38;;
65896;SDS011;52677;50.898;10.854;2023-04-25T02:22:37;8.75;;;5.80;;
65896;SDS011;52677;50.898;10.854;2023-04-25T02:24:38;8.07;;;5.00;;
65896;SDS011;52677;50.898;10.854;2023-04-25T02:26:38;8.50;;;5.57;;
65896;SDS011;52677;50.898;10.854;2023-04-25T02:28:39;7.80;;;5.57;;
65896;SDS011;52677;50.898;10.854;2023-04-25T02:30:40;8.57;;;5.13;;
65896;SDS011;52677;50.898;10.854;2023-04-25T02:32:40;7.90;;;5.40;;
65896;SDS011;52677;50.898;10.854;2023-04-25T02:34:41;9.32;;;5.32;;
65896;SDS011;52677;50.898;10.854;2023-04-25T02:36:41;7.25;;;5.13;;
65896;SDS011;52677;50.898;10.854;2023-04-25T02:38:41;8.75;;;5.25;;
65896;SDS011;52677;50.898;10.854;2023-04-25T02:40:42;8.88;;;5.80;;
65896;SDS011;52677;50.898;10.854;2023-04-25T02:42:42;7.65;;;5.43;;
65896;SDS011;52677;50.898;10.854;2023-04-25T02:44:43;8.35;;;5.75;;
65896;SDS011;52677;50.898;10.854;2023-04-25T02:46:43;8.13;;;5.63;;
65896;SDS011;52677;50.898;10.854;2023-04-25T02:48:43;8.35;;;5.53;;
65896;SDS011;52677;50.898;10.854;2023-04-25T02:50:43;9.50;;;5.88;;
65896;SDS011;52677;50.898;10.854;2023-04-25T02:52:45;7.63;;;4.95;;
65896;SDS011;52677;50.898;10.854;2023-04-25T02:54:45;8.23;;;5.40;;
65896;SDS011;52677;50.898;10.854;2023-04-25T02:56:46;7.65;;;5.68;;
65896;SDS011;52677;50.898;10.854;2023-04-25T02:58:46;9.40;;;6.00;;
65896;SDS011;52677;50.898;10.854;2023-04-25T03:00:46;8.27;;;5.20;;
65896;SDS011;52677;50.898;10.854;2023-04-25T03:02:47;8.45;;;5.50;;
65896;SDS011;52677;50.898;10.854;2023-04-25T03:04:47;9.90;;;6.22;;
65896;SDS011;52677;50.898;10.854;2023-04-25T03:06:47;9.18;;;5.15;;
65896;SDS011;52677;50.898;10.854;2023-04-25T03:08:48;8.23;;;5.00;;
65896;SDS011;52677;50.898;10.854;2023-04-25T03:10:48;8.18;;;4.60;;
65896;SDS011;52677;50.898;10.854;2023-04-25T03:12:51;6.50;;;4.53;;
65896;SDS011;52677;50.898;10.854;2023-04-25T03:14:51;7.93;;;5.25;;
65896;SDS011;52677;50.898;10.854;2023-04-25T03:16:51;8.95;;;5.20;;
65896;SDS011;52677;50.898;10.854;2023-04-25T03:18:52;9.40;;;4.97;;
65896;SDS011;52677;50.898;10.854;2023-04-25T03:20:52;8.32;;;5.72;;
65896;SDS011;52677;50.898;10.854;2023-04-25T03:22:53;11.00;;;4.80;;
65896;SDS011;52677;50.898;10.854;2023-04-25T03:24:53;9.70;;;5.43;;
65896;SDS011;52677;50.898;10.854;2023-04-25T03:26:53;7.70;;;4.72;;
65896;SDS011;52677;50.898;10.854;2023-04-25T03:28:54;8.25;;;4.75;;
65896;SDS011;52677;50.898;10.854;2023-04-25T03:30:54;8.52;;;5.60;;
65896;SDS011;52677;50.898;10.854;2023-04-25T03:32:54;7.05;;;4.32;;
65896;SDS011;52677;50.898;10.854;2023-04-25T03:34:55;7.03;;;4.75;;
65896;SDS011;52677;50.898;10.854;2023-04-25T03:36:55;8.05;;;5.80;;
65896;SDS011;52677;50.898;10.854;2023-04-25T03:38:56;8.00;;;4.80;;
65896;SDS011;52677;50.898;10.854;2023-04-25T03:40:56;7.50;;;4.60;;
65896;SDS011;52677;50.898;10.854;2023-04-25T03:42:56;5.93;;;4.20;;
65896;SDS011;52677;50.898;10.854;2023-04-25T03:44:57;11.85;;;4.43;;
65896;SDS011;52677;50.898;10.854;2023-04-25T03:46:57;8.80;;;4.60;;
65896;SDS011;52677;50.898;10.854;2023-04-25T03:48:57;7.65;;;4.57;;
65896;SDS011;52677;50.898;10.854;2023-04-25T03:50:59;12.13;;;5.63;;
65896;SDS011;52677;50.898;10.854;2023-04-25T03:52:59;10.80;;;4.70;;
65896;SDS011;52677;50.898;10.854;2023-04-25T03:55:00;11.32;;;5.25;;
65896;SDS011;52677;50.898;10.854;2023-04-25T03:57:00;8.50;;;4.53;;
65896;SDS011;52677;50.898;10.854;2023-04-25T03:59:00;11.00;;;4.75;;
65896;SDS011;52677;50.898;10.854;2023-04-25T04:01:00;12.23;;;5.38;;
65896;SDS011;52677;50.898;10.854;2023-04-25T04:03:03;8.65;;;4.70;;
65896;SDS011;52677;50.898;10.854;2023-04-25T04:05:03;5.75;;;4.30;;
65896;SDS011;52677;50.898;10.854;2023-04-25T04:07:04;8.70;;;4.35;;
65896;SDS011;52677;50.898;10.854;2023-04-25T04:09:04;7.05;;;4.75;;
65896;SDS011;52677;50.898;10.854;2023-04-25T04:11:08;7.78;;;4.90;;
65896;SDS011;52677;50.898;10.854;2023-04-25T04:13:08;6.15;;;4.70;;
65896;SDS011;52677;50.898;10.854;2023-04-25T04:15:09;6.80;;;5.15;;
65896;SDS011;52677;50.898;10.854;2023-04-25T04:17:09;8.23;;;5.50;;
65896;SDS011;52677;50.898;10.854;2023-04-25T04:19:10;7.63;;;5.82;;
65896;SDS011;52677;50.898;10.854;2023-04-25T04:21:10;8.85;;;4.80;;
65896;SDS011;52677;50.898;10.854;2023-04-25T04:23:11;7.30;;;4.43;;
65896;SDS011;52677;50.898;10.854;2023-04-25T04:25:11;6.95;;;5.30;;
65896;SDS011;52677;50.898;10.854;2023-04-25T04:27:12;7.00;;;5.45;;
65896;SDS011;52677;50.898;10.854;2023-04-25T04:29:13;9.75;;;5.70;;
65896;SDS011;52677;50.898;10.854;2023-04-25T04:31:21;12.30;;;8.18;;
65896;SDS011;52677;50.898;10.854;2023-04-25T04:33:21;12.30;;;7.07;;
65896;SDS011;52677;50.898;10.854;2023-04-25T04:35:23;12.10;;;6.03;;
65896;SDS011;52677;50.898;10.854;2023-04-25T04:37:24;8.05;;;5.07;;
65896;SDS011;52677;50.898;10.854;2023-04-25T04:39:24;8.38;;;5.50;;
65896;SDS011;52677;50.898;10.854;2023-04-25T04:41:24;12.60;;;6.65;;
65896;SDS011;52677;50.898;10.854;2023-04-25T04:43:24;11.50;;;8.25;;
65896;SDS011;52677;50.898;10.854;2023-04-25T04:45:25;11.55;;;7.47;;
65896;SDS011;52677;50.898;10.854;2023-04-25T04:47:27;7.63;;;6.40;;
65896;SDS011;52677;50.898;10.854;2023-04-25T04:49:31;9.52;;;6.32;;
65896;SDS011;52677;50.898;10.854;2023-04-25T04:51:31;9.02;;;5.88;;
65896;SDS011;52677;50.898;10.854;2023-04-25T04:53:32;11.50;;;6.10;;
65896;SDS011;52677;50.898;10.854;2023-04-25T04:55:32;17.95;;;6.13;;
65896;SDS011;52677;50.898;10.854;2023-04-25T04:57:32;10.32;;;5.93;;
65896;SDS011;52677;50.898;10.854;2023-04-25T04:59:33;8.80;;;5.78;;
65896;SDS011;52677;50.898;10.854;2023-04-25T05:01:33;12.00;;;5.93;;
65896;SDS011;52677;50.898;10.854;2023-04-25T05:03:37;8.82;;;5.45;;
65896;SDS011;52677;50.898;10.854;2023-04-25T05:05:37;12.13;;;6.45;;
65896;SDS011;52677;50.898;10.854;2023-04-25T05:07:39;11.40;;;7.18;;
65896;SDS011;52677;50.898;10.854;2023-04-25T05:09:40;12.68;;;6.63;;
65896;SDS011;52677;50.898;10.854;2023-04-25T05:11:40;15.82;;;6.70;;
65896;SDS011;52677;50.898;10.854;2023-04-25T05:13:41;9.40;;;6.07;;
65896;SDS011;52677;50.898;10.854;2023-04-25T05:15:41;8.40;;;5.55;;
65896;SDS011;52677;50.898;10.854;2023-04-25T05:17:41;10.35;;;5.85;;
65896;SDS011;52677;50.898;10.854;2023-04-25T05:19:41;8.80;;;6.10;;
65896;SDS011;52677;50.898;10.854;2023-04-25T05:21:42;7.90;;;5.68;;
65896;SDS011;52677;50.898;10.854;2023-04-25T05:23:43;9.65;;;6.05;;
65896;SDS011;52677;50.898;10.854;2023-04-25T05:25:43;10.32;;;5.18;;
65896;SDS011;52677;50.898;10.854;2023-04-25T05:27:43;12.18;;;5.82;;
65896;SDS011;52677;50.898;10.854;2023-04-25T05:29:44;8.82;;;5.68;;
65896;SDS011;52677;50.898;10.854;2023-04-25T05:31:44;11.13;;;5.97;;
65896;SDS011;52677;50.898;10.854;2023-04-25T05:33:47;8.98;;;5.03;;
65896;SDS011;52677;50.898;10.854;2023-04-25T05:35:48;13.90;;;6.25;;
65896;SDS011;52677;50.898;10.854;2023-04-25T05:37:48;8.60;;;5.80;;
65896;SDS011;52677;50.898;10.854;2023-04-25T05:39:48;10.85;;;5.53;;
65896;SDS011;52677;50.898;10.854;2023-04-25T05:41:49;10.43;;;5.43;;
65896;SDS011;52677;50.898;10.854;2023-04-25T05:43:49;10.48;;;5.30;;
65896;SDS011;52677;50.898;10.854;2023-04-25T05:45:50;9.85;;;5.22;;
65896;SDS011;52677;50.898;10.854;2023-04-25T05:47:50;6.68;;;4.75;;
65896;SDS011;52677;50.898;10.854;2023-04-25T05:49:50;10.10;;;4.45;;
65896;SDS011;52677;50.898;10.854;2023-04-25T05:51:51;11.02;;;5.45;;
65896;SDS011;52677;50.898;10.854;2023-04-25T05:53:51;8.40;;;4.82;;
65896;SDS011;52677;50.898;10.854;2023-04-25T05:55:51;7.85;;;4.75;;
65896;SDS011;52677;50.898;10.854;2023-04-25T05:57:52;8.85;;;4.90;;
65896;SDS011;52677;50.898;10.854;2023-04-25T05:59:52;6.40;;;4.32;;
65896;SDS011;52677;50.898;10.854;2023-04-25T06:01:53;6.63;;;4.20;;
65896;SDS011;52677;50.898;10.854;2023-04-25T06:03:53;8.50;;;4.63;;
65896;SDS011;52677;50.898;10.854;2023-04-25T06:05:53;6.53;;;4.25;;
65896;SDS011;52677;50.898;10.854;2023-04-25T06:07:54;7.15;;;4.60;;
65896;SDS011;52677;50.898;10.854;2023-04-25T06:09:54;7.10;;;4.00;;
65896;SDS011;52677;50.898;10.854;2023-04-25T06:11:54;7.57;;;3.67;;
65896;SDS011;52677;50.898;10.854;2023-04-25T06:13:55;8.00;;;4.00;;
65896;SDS011;52677;50.898;10.854;2023-04-25T06:15:55;5.70;;;3.55;;
65896;SDS011;52677;50.898;10.854;2023-04-25T06:17:55;9.13;;;4.00;;
65896;SDS011;52677;50.898;10.854;2023-04-25T06:19:56;6.40;;;3.53;;
65896;SDS011;52677;50.898;10.854;2023-04-25T06:21:56;6.00;;;3.45;;
65896;SDS011;52677;50.898;10.854;2023-04-25T06:23:56;6.80;;;3.45;;
65896;SDS011;52677;50.898;10.854;2023-04-25T06:25:56;8.88;;;4.18;;
65896;SDS011;52677;50.898;10.854;2023-04-25T06:27:57;6.78;;;3.70;;
65896;SDS011;52677;50.898;10.854;2023-04-25T06:29:57;6.97;;;3.20;;
65896;SDS011;52677;50.898;10.854;2023-04-25T06:31:57;6.30;;;3.33;;
65896;SDS011;52677;50.898;10.854;2023-04-25T06:33:58;5.22;;;3.30;;
65896;SDS011;52677;50.898;10.854;2023-04-25T06:35:58;5.65;;;3.42;;
65896;SDS011;52677;50.898;10.854;2023-04-25T06:37:58;5.28;;;3.38;;
65896;SDS011;52677;50.898;10.854;2023-04-25T06:39:59;4.68;;;3.20;;
65896;SDS011;52677;50.898;10.854;2023-04-25T06:42:00;5.53;;;3.25;;
65896;SDS011;52677;50.898;10.854;2023-04-25T06:44:00;7.43;;;3.50;;
65896;SDS011;52677;50.898;10.854;2023-04-25T06:46:01;7.18;;;3.40;;
65896;SDS011;52677;50.898;10.854;2023-04-25T06:48:01;5.80;;;3.10;;
65896;SDS011;52677;50.898;10.854;2023-04-25T06:50:01;6.72;;;3.10;;
65896;SDS011;52677;50.898;10.854;2023-04-25T06:52:02;6.68;;;3.50;;
65896;SDS011;52677;50.898;10.854;2023-04-25T06:54:02;5.95;;;3.28;;
65896;SDS011;52677;50.898;10.854;2023-04-25T06:56:05;5.07;;;3.42;;
65896;SDS011;52677;50.898;10.854;2023-04-25T06:58:05;4.50;;;2.90;;
65896;SDS011;52677;50.898;10.854;2023-04-25T07:00:07;4.28;;;2.80;;
65896;SDS011;52677;50.898;10.854;2023-04-25T07:02:11;4.97;;;3.83;;
65896;SDS011;52677;50.898;10.854;2023-04-25T07:04:11;8.43;;;3.85;;
65896;SDS011;52677;50.898;10.854;2023-04-25T07:06:11;7.05;;;3.65;;
65896;SDS011;52677;50.898;10.854;2023-04-25T07:08:12;5.60;;;3.15;;
65896;SDS011;52677;50.898;10.854;2023-04-25T07:10:12;4.78;;;2.85;;
65896;SDS011;52677;50.898;10.854;2023-04-25T07:12:12;6.00;;;3.25;;
65896;SDS011;52677;50.898;10.854;2023-04-25T07:14:13;4.47;;;2.83;;
65896;SDS011;52677;50.898;10.854;2023-04-25T07:16:13;4.38;;;2.85;;
65896;SDS011;52677;50.898;10.854;2023-04-25T07:18:13;5.05;;;2.78;;
65896;SDS011;52677;50.898;10.854;2023-04-25T07:20:14;4.18;;;2.83;;
65896;SDS011;52677;50.898;10.854;2023-04-25T07:22:14;4.28;;;3.25;;
65896;SDS011;52677;50.898;10.854;2023-04-25T07:24:14;3.85;;;2.88;;
65896;SDS011;52677;50.898;10.854;2023-04-25T07:26:15;5.82;;;3.33;;
65896;SDS011;52677;50.898;10.854;2023-04-25T07:28:15;6.22;;;3.10;;
65896;SDS011;52677;50.898;10.854;2023-04-25T07:30:16;4.18;;;3.28;;
65896;SDS011;52677;50.898;10.854;2023-04-25T07:32:16;7.10;;;3.17;;
65896;SDS011;52677;50.898;10.854;2023-04-25T07:34:16;4.55;;;3.05;;
65896;SDS011;52677;50.898;10.854;2023-04-25T07:36:16;5.00;;;3.10;;
65896;SDS011;52677;50.898;10.854;2023-04-25T07:38:17;5.82;;;3.20;;
65896;SDS011;52677;50.898;10.854;2023-04-25T07:40:17;6.30;;;3.17;;
65896;SDS011;52677;50.898;10.854;2023-04-25T07:42:17;4.80;;;3.70;;
65896;SDS011;52677;50.898;10.854;2023-04-25T07:44:18;5.78;;;3.50;;
65896;SDS011;52677;50.898;10.854;2023-04-25T07:46:18;4.95;;;2.97;;
65896;SDS011;52677;50.898;10.854;2023-04-25T07:48:18;5.30;;;3.03;;
65896;SDS011;52677;50.898;10.854;2023-04-25T07:50:19;6.90;;;3.97;;
65896;SDS011;52677;50.898;10.854;2023-04-25T07:52:19;15.25;;;6.72;;
65896;SDS011;52677;50.898;10.854;2023-04-25T07:54:20;13.23;;;5.10;;
65896;SDS011;52677;50.898;10.854;2023-04-25T07:56:21;4.88;;;3.35;;
65896;SDS011;52677;50.898;10.854;2023-04-25T07:58:21;6.45;;;2.80;;
65896;SDS011;52677;50.898;10.854;2023-04-25T08:00:22;4.60;;;3.25;;
65896;SDS011;52677;50.898;10.854;2023-04-25T08:02:22;6.22;;;3.00;;
65896;SDS011;52677;50.898;10.854;2023-04-25T08:04:23;5.88;;;2.97;;
65896;SDS011;52677;50.898;10.854;2023-04-25T08:06:23;6.38;;;3.45;;
65896;SDS011;52677;50.898;10.854;2023-04-25T08:08:23;4.68;;;3.13;;
65896;SDS011;52677;50.898;10.854;2023-04-25T08:10:24;4.45;;;3.40;;
65896;SDS011;52677;50.898;10.854;2023-04-25T08:12:24;4.40;;;2.83;;
65896;SDS011;52677;50.898;10.854;2023-04-25T08:14:24;4.95;;;3.47;;
65896;SDS011;52677;50.898;10.854;2023-04-25T08:16:25;6.03;;;3.15;;
65896;SDS011;52677;50.898;10.854;2023-04-25T08:18:25;5.30;;;3.60;;
65896;SDS011;52677;50.898;10.854;2023-04-25T08:20:26;6.45;;;3.58;;
65896;SDS011;52677;50.898;10.854;2023-04-25T08:22:26;7.75;;;4.60;;
65896;SDS011;52677;50.898;10.854;2023-04-25T08:24:28;6.30;;;3.72;;
65896;SDS011;52677;50.898;10.854;2023-04-25T08:26:29;6.40;;;3.88;;
65896;SDS011;52677;50.898;10.854;2023-04-25T08:28:29;7.47;;;4.38;;
65896;SDS011;52677;50.898;10.854;2023-04-25T08:30:30;6.55;;;3.92;;
65896;SDS011;52677;50.898;10.854;2023-04-25T08:32:31;8.50;;;4.38;;
65896;SDS011;52677;50.898;10.854;2023-04-25T08:34:31;6.45;;;3.80;;
65896;SDS011;52677;50.898;10.854;2023-04-25T08:36:31;5.53;;;3.50;;
65896;SDS011;52677;50.898;10.854;2023-04-25T08:38:32;7.07;;;4.13;;
65896;SDS011;52677;50.898;10.854;2023-04-25T08:40:34;5.88;;;4.03;;
65896;SDS011;52677;50.898;10.854;2023-04-25T08:42:37;11.65;;;5.43;;
65896;SDS011;52677;50.898;10.854;2023-04-25T08:44:38;8.23;;;5.40;;
65896;SDS011;52677;50.898;10.854;2023-04-25T08:46:38;8.38;;;4.30;;
65896;SDS011;52677;50.898;10.854;2023-04-25T08:48:40;7.15;;;4.72;;
65896;SDS011;52677;50.898;10.854;2023-04-25T08:50:49;6.97;;;4.17;;
65896;SDS011;52677;50.898;10.854;2023-04-25T08:52:51;11.65;;;5.28;;
65896;SDS011;52677;50.898;10.854;2023-04-25T08:54:53;8.50;;;3.92;;
65896;SDS011;52677;50.898;10.854;2023-04-25T08:56:54;10.60;;;6.20;;
65896;SDS011;52677;50.898;10.854;2023-04-25T08:58:57;11.45;;;8.43;;
65896;SDS011;52677;50.898;10.854;2023-04-25T09:00:58;8.93;;;4.10;;
65896;SDS011;52677;50.898;10.854;2023-04-25T09:02:59;5.80;;;3.58;;
65896;SDS011;52677;50.898;10.854;2023-04-25T09:05:00;7.75;;;4.60;;
65896;SDS011;52677;50.898;10.854;2023-04-25T09:07:00;5.55;;;3.92;;
65896;SDS011;52677;50.898;10.854;2023-04-25T09:09:04;7.10;;;4.07;;
65896;SDS011;52677;50.898;10.854;2023-04-25T09:11:06;5.80;;;3.65;;
65896;SDS011;52677;50.898;10.854;2023-04-25T09:13:11;6.07;;;3.45;;
65896;SDS011;52677;50.898;10.854;2023-04-25T09:15:15;4.07;;;2.92;;
65896;SDS011;52677;50.898;10.854;2023-04-25T09:17:15;5.90;;;2.85;;
65896;SDS011;52677;50.898;10.854;2023-04-25T09:19:21;4.60;;;2.90;;
65896;SDS011;52677;50.898;10.854;2023-04-25T09:21:22;5.95;;;2.75;;
65896;SDS011;52677;50.898;10.854;2023-04-25T09:23:23;5.13;;;3.33;;
65896;SDS011;52677;50.898;10.854;2023-04-25T09:25:24;4.28;;;2.58;;
65896;SDS011;52677;50.898;10.854;2023-04-25T09:27:25;3.20;;;2.42;;
65896;SDS011;52677;50.898;10.854;2023-04-25T09:29:30;5.03;;;2.50;;
65896;SDS011;52677;50.898;10.854;2023-04-25T09:31:34;4.38;;;2.10;;
65896;SDS011;52677;50.898;10.854;2023-04-25T09:33:34;5.13;;;2.50;;
65896;SDS011;52677;50.898;10.854;2023-04-25T09:35:39;5.30;;;2.10;;
65896;SDS011;52677;50.898;10.854;2023-04-25T09:37:42;6.00;;;2.72;;
65896;SDS011;52677;50.898;10.854;2023-04-25T09:39:42;6.15;;;2.95;;
65896;SDS011;52677;50.898;10.854;2023-04-25T09:41:44;4.68;;;2.90;;
65896;SDS011;52677;50.898;10.854;2023-04-25T09:43:45;5.63;;;2.50;;
65896;SDS011;52677;50.898;10.854;2023-04-25T09:45:46;10.15;;;2.58;;
65896;SDS011;52677;50.898;10.854;2023-04-25T09:47:47;3.88;;;2.35;;
65896;SDS011;52677;50.898;10.854;2023-04-25T09:49:47;3.63;;;2.22;;
65896;SDS011;52677;50.898;10.854;2023-04-25T09:51:54;4.90;;;2.35;;
65896;SDS011;52677;50.898;10.854;2023-04-25T09:53:58;2.75;;;1.67;;
65896;SDS011;52677;50.898;10.854;2023-04-25T09:55:59;2.58;;;1.83;;
65896;SDS011;52677;50.898;10.854;2023-04-25T09:58:02;2.40;;;1.52;;
65896;SDS011;52677;50.898;10.854;2023-04-25T10:00:05;3.47;;;1.50;;
65896;SDS011;52677;50.898;10.854;2023-04-25T10:02:11;2.72;;;1.67;;
65896;SDS011;52677;50.898;10.854;2023-04-25T10:04:12;2.65;;;1.67;;
65896;SDS011;52677;50.898;10.854;2023-04-25T10:06:14;3.13;;;2.20;;
65896;SDS011;52677;50.898;10.854;2023-04-25T10:08:19;5.97;;;1.83;;
65896;SDS011;52677;50.898;10.854;2023-04-25T10:10:20;2.50;;;1.92;;
65896;SDS011;52677;50.898;10.854;2023-04-25T10:12:25;4.43;;;2.20;;
65896;SDS011;52677;50.898;10.854;2023-04-25T10:14:26;3.10;;;2.17;;
65896;SDS011;52677;50.898;10.854;2023-04-25T10:16:27;5.88;;;2.13;;
65896;SDS011;52677;50.898;10.854;2023-04-25T10:18:29;10.85;;;3.50;;
65896;SDS011;52677;50.898;10.854;2023-04-25T10:20:30;11.27;;;3.33;;
65896;SDS011;52677;50.898;10.854;2023-04-25T10:22:35;6.90;;;3.22;;
65896;SDS011;52677;50.898;10.854;2023-04-25T10:24:38;9.52;;;3.13;;
65896;SDS011;52677;50.898;10.854;2023-04-25T10:26:39;6.25;;;3.20;;
65896;SDS011;52677;50.898;10.854;2023-04-25T10:29:15;6.53;;;3.80;;
65896;SDS011;52677;50.898;10.854;2023-04-25T10:31:07;5.97;;;3.20;;
65896;SDS011;52677;50.898;10.854;2023-04-25T10:33:17;7.78;;;2.45;;
65896;SDS011;52677;50.898;10.854;2023-04-25T10:35:19;7.50;;;2.60;;
65896;SDS011;52677;50.898;10.854;2023-04-25T10:37:25;4.55;;;3.28;;
65896;SDS011;52677;50.898;10.854;2023-04-25T10:39:26;7.78;;;2.70;;
65896;SDS011;52677;50.898;10.854;2023-04-25T10:41:27;5.70;;;3.47;;
65896;SDS011;52677;50.898;10.854;2023-04-25T10:43:45;5.65;;;3.00;;
65896;SDS011;52677;50.898;10.854;2023-04-25T10:45:52;8.60;;;3.65;;
65896;SDS011;52677;50.898;10.854;2023-04-25T10:47:52;6.18;;;2.85;;
65896;SDS011;52677;50.898;10.854;2023-04-25T10:49:54;9.50;;;3.03;;
65896;SDS011;52677;50.898;10.854;2023-04-25T10:52:10;7.78;;;3.53;;
65896;SDS011;52677;50.898;10.854;2023-04-25T10:54:18;8.35;;;3.67;;
65896;SDS011;52677;50.898;10.854;2023-04-25T10:56:20;15.43;;;3.27;;
65896;SDS011;52677;50.898;10.854;2023-04-25T10:58:23;7.75;;;3.45;;
65896;SDS011;52677;50.898;10.854;2023-04-25T11:00:23;8.32;;;3.40;;
65896;SDS011;52677;50.898;10.854;2023-04-25T11:02:27;7.82;;;3.40;;
65896;SDS011;52677;50.898;10.854;2023-04-25T11:04:29;6.90;;;3.75;;
65896;SDS011;52677;50.898;10.854;2023-04-25T11:08:43;8.27;;;3.33;;
65896;SDS011;52677;50.898;10.854;2023-04-25T11:10:48;7.30;;;3.20;;
65896;SDS011;52677;50.898;10.854;2023-04-25T11:12:49;7.88;;;3.38;;
65896;SDS011;52677;50.898;10.854;2023-04-25T11:14:49;5.38;;;3.00;;
65896;SDS011;52677;50.898;10.854;2023-04-25T11:16:53;9.15;;;3.70;;
65896;SDS011;52677;50.898;10.854;2023-04-25T11:18:56;7.63;;;3.85;;
65896;SDS011;52677;50.898;10.854;2023-04-25T11:20:57;10.55;;;3.65;;
65896;SDS011;52677;50.898;10.854;2023-04-25T11:22:58;13.75;;;3.85;;
65896;SDS011;52677;50.898;10.854;2023-04-25T11:25:05;8.52;;;3.58;;
65896;SDS011;52677;50.898;10.854;2023-04-25T11:27:06;9.48;;;3.58;;
65896;SDS011;52677;50.898;10.854;2023-04-25T11:29:07;8.18;;;3.13;;
65896;SDS011;52677;50.898;10.854;2023-04-25T11:31:07;8.13;;;4.35;;
65896;SDS011;52677;50.898;10.854;2023-04-25T11:33:09;10.70;;;5.18;;
65896;SDS011;52677;50.898;10.854;2023-04-25T11:35:10;14.57;;;4.28;;
65896;SDS011;52677;50.898;10.854;2023-04-25T11:37:10;13.02;;;6.05;;
65896;SDS011;52677;50.898;10.854;2023-04-25T11:39:12;22.45;;;9.27;;
65896;SDS011;52677;50.898;10.854;2023-04-25T11:41:13;29.10;;;13.02;;
65896;SDS011;52677;50.898;10.854;2023-04-25T11:43:13;7.93;;;3.55;;
65896;SDS011;52677;50.898;10.854;2023-04-25T11:45:14;5.78;;;3.03;;
65896;SDS011;52677;50.898;10.854;2023-04-25T11:47:15;10.65;;;3.80;;
65896;SDS011;52677;50.898;10.854;2023-04-25T11:49:15;7.68;;;2.78;;
65896;SDS011;52677;50.898;10.854;2023-04-25T11:51:17;5.50;;;3.38;;
65896;SDS011;52677;50.898;10.854;2023-04-25T11:53:17;9.27;;;2.72;;
65896;SDS011;52677;50.898;10.854;2023-04-25T11:55:18;8.43;;;2.53;;
65896;SDS011;52677;50.898;10.854;2023-04-25T11:57:20;8.60;;;3.38;;
65896;SDS011;52677;50.898;10.854;2023-04-25T11:59:23;13.18;;;3.72;;
65896;SDS011;52677;50.898;10.854;2023-04-25T12:01:28;6.80;;;2.88;;
65896;SDS011;52677;50.898;10.854;2023-04-25T12:03:30;4.50;;;2.67;;